EFSA

Savonlinna Airport

Savonlinna, Finland
METAR EFSA 201450Z AUTO 28005KT CAVOK M12/M14 Q1026
Observed Flight Rules
Feb-20 @ 14:50 UTC (3 hours ago) Visual Flight Rules
Wind Visibility Clouds
280° at 5 knots 10,000+ meters
  • Clear skies
Temperatures Readings
Current -12°C / 10°F
Dewpoint -14°C / 7°F
Humidity 85%
Altimeter 30.3" Hg
Pressure 1026 hPa
Elevation 95
METAR EFSA 201450Z AUTO 28005KT CAVOK M12/M14 Q1026
Observed Flight Rules
Feb-20 @ 14:50 UTC
(3 hours ago)
VFR
Wind Visibility
280° at 5 knots 10,000+ meters
Clouds
  • Clear skies
Temperature Dewpoint
-12°C / 10°F -14°C / 7°F
Humidity Altimeter Pressure
85% 30.3" Hg 1026 hPa